Time;durP1;ratioP1;P1;durP2;ratioP2;P2;SDS_P1;SDS_P2;PMS_P1;PMS_P2;Temp;Humidity;BMP_temperature;BMP_pressure;BME280_temperature;BME280_humidity;BME280_pressure;Samples;Min_cycle;Max_cycle;Signal;HPM_P1;HPM_P2
2023/02/04 00:00:14;;;;;;;4.43;1.05;;;;;;;6.05;59.51;99406.53;5283428;27;20326;-85
2023/02/04 00:02:40;;;;;;;9.73;1.30;;;;;;;6.10;59.52;99407.28;5283385;27;20440;-84
2023/02/04 00:05:05;;;;;;;4.45;1.00;;;;;;;5.94;59.51;99412.78;5265236;27;20924;-84
2023/02/04 00:07:31;;;;;;;6.28;1.45;;;;;;;5.85;59.50;99411.19;5264780;27;20068;-84
2023/02/04 00:09:56;;;;;;;3.70;1.08;;;;;;;5.97;59.51;99399.81;5283360;27;20080;-84
2023/02/04 00:12:22;;;;;;;6.30;1.55;;;;;;;5.93;59.51;99403.34;5283554;27;20099;-84
2023/02/04 00:14:47;;;;;;;3.97;1.37;;;;;;;5.98;59.51;99397.19;5283564;27;20060;-85
2023/02/04 00:17:13;;;;;;;3.83;1.05;;;;;;;6.06;59.52;99407.37;5266523;27;20076;-84
2023/02/04 00:19:39;;;;;;;9.65;2.42;;;;;;;6.18;59.52;99383.91;5283819;27;20113;-84
2023/02/04 00:22:06;;;;;;;3.00;0.75;;;;;;;6.01;59.51;99406.63;5302649;27;20072;-85
2023/02/04 00:24:32;;;;;;;5.40;1.40;;;;;;;5.99;59.51;99406.66;5266880;27;20115;-85
2023/02/04 00:26:57;;;;;;;6.07;1.30;;;;;;;6.09;59.52;99412.47;5266052;27;20074;-84
2023/02/04 00:29:23;;;;;;;7.70;1.40;;;;;;;6.07;59.52;99406.50;5266367;27;20152;-85
2023/02/04 00:31:48;;;;;;;13.15;2.12;;;;;;;6.12;59.51;99417.59;5284159;27;20112;-84
2023/02/04 00:34:13;;;;;;;5.10;1.50;;;;;;;6.09;59.52;99415.91;5284199;27;20405;-83
2023/02/04 00:36:39;;;;;;;7.57;1.70;;;;;;;6.08;59.52;99426.28;5302721;27;20104;-84
2023/02/04 00:39:04;;;;;;;3.75;1.40;;;;;;;6.01;59.51;99416.94;5285693;27;20057;-84
2023/02/04 00:41:30;;;;;;;7.07;1.20;;;;;;;6.07;59.52;99415.09;5266255;27;20060;-84
2023/02/04 00:43:55;;;;;;;7.60;1.55;;;;;;;6.07;59.52;99422.84;5265739;27;20107;-84
2023/02/04 00:46:20;;;;;;;5.97;1.33;;;;;;;6.07;59.52;99417.69;5284365;27;20124;-84
2023/02/04 00:48:46;;;;;;;3.03;1.15;;;;;;;6.16;59.52;99406.34;5265892;27;20109;-84
2023/02/04 00:51:11;;;;;;;8.25;2.33;;;;;;;6.08;59.52;99403.88;5265964;27;20128;-85
2023/02/04 00:53:37;;;;;;;6.30;2.12;;;;;;;5.98;59.51;99397.19;5265914;27;20384;-84
2023/02/04 00:56:03;;;;;;;5.30;1.05;;;;;;;5.98;59.51;99392.03;5283851;27;20425;-84
2023/02/04 00:58:29;;;;;;;4.93;1.45;;;;;;;6.08;59.52;99390.97;5303936;27;20065;-83
2023/02/04 01:00:54;;;;;;;4.45;1.02;;;;;;;6.03;59.51;99397.09;5289759;27;20080;-83
2023/02/04 01:03:20;;;;;;;6.75;1.20;;;;;;;6.08;59.52;99379.78;5274739;27;20065;-84
2023/02/04 01:05:45;;;;;;;6.72;2.05;;;;;;;6.04;59.51;99372.97;5292004;27;20084;-84
2023/02/04 01:08:11;;;;;;;7.20;1.77;;;;;;;6.06;59.52;99381.53;5266248;27;20119;-84
2023/02/04 01:10:36;;;;;;;5.57;1.20;;;;;;;6.09;59.52;99378.88;5266062;27;20472;-83
2023/02/04 01:13:01;;;;;;;7.25;1.10;;;;;;;5.94;59.51;99374.91;5283885;27;20048;-85
2023/02/04 01:15:27;;;;;;;7.85;1.40;;;;;;;6.02;59.51;99372.16;5266098;27;20120;-84
2023/02/04 01:17:52;;;;;;;4.68;1.08;;;;;;;6.14;59.52;99367.56;5283948;27;20050;-84
2023/02/04 01:20:18;;;;;;;2.90;1.23;;;;;;;6.20;59.53;99353.69;5266128;27;20081;-84
2023/02/04 01:22:43;;;;;;;5.00;1.37;;;;;;;6.24;59.52;99359.66;5266173;27;20084;-84
2023/02/04 01:25:09;;;;;;;5.32;1.17;;;;;;;6.20;59.52;99363.19;5266073;27;20359;-84
2023/02/04 01:27:34;;;;;;;6.25;1.30;;;;;;;6.17;59.52;99353.78;5266202;27;20061;-85
2023/02/04 01:29:59;;;;;;;6.62;0.90;;;;;;;6.15;59.52;99340.00;5266074;27;20107;-84
2023/02/04 01:32:25;;;;;;;6.93;1.20;;;;;;;6.20;59.52;99358.03;5283990;27;20064;-84
2023/02/04 01:34:50;;;;;;;2.70;1.12;;;;;;;6.29;59.53;99356.09;5284501;27;20116;-85
2023/02/04 01:37:16;;;;;;;6.93;1.30;;;;;;;6.45;59.54;99362.63;5265932;27;20413;-84
2023/02/04 01:39:42;;;;;;;4.87;0.90;;;;;;;6.43;59.52;99355.81;5265897;27;20116;-84
2023/02/04 01:42:07;;;;;;;5.93;1.50;;;;;;;6.37;59.53;99354.19;5284101;27;20197;-85
2023/02/04 01:44:33;;;;;;;5.22;1.30;;;;;;;6.41;59.53;99358.44;5283925;27;20111;-84
2023/02/04 01:46:58;;;;;;;5.30;1.05;;;;;;;6.58;59.55;99357.19;5283777;27;20075;-84
2023/02/04 01:49:23;;;;;;;3.58;1.10;;;;;;;6.60;59.55;99366.59;5274537;27;137810;-84
2023/02/04 01:51:49;;;;;;;5.90;1.02;;;;;;;6.67;59.55;99363.03;5293461;27;20357;-84
2023/02/04 01:54:16;;;;;;;8.48;1.10;;;;;;;6.58;59.55;99357.19;5266353;27;20075;-84
2023/02/04 01:56:43;;;;;;;2.85;0.80;;;;;;;6.62;59.54;99358.81;5284424;27;20068;-84
2023/02/04 01:59:13;;;;;;;4.15;1.37;;;;;;;6.73;59.56;99362.03;5283746;27;20071;-84
2023/02/04 02:01:43;;;;;;;8.43;1.00;;;;;;;6.70;59.55;99367.28;5265453;27;20458;-84
2023/02/04 02:04:14;;;;;;;5.55;0.90;;;;;;;6.84;59.56;99359.19;5265401;27;20500;-84
2023/02/04 02:06:43;;;;;;;5.70;1.20;;;;;;;6.83;59.55;99365.25;5265879;27;20067;-85
2023/02/04 02:09:08;;;;;;;4.20;0.93;;;;;;;6.78;59.55;99355.84;5284549;27;20061;-85
2023/02/04 02:11:34;;;;;;;4.65;0.98;;;;;;;6.86;59.56;99363.47;5321362;27;20119;-84
2023/02/04 02:13:59;;;;;;;2.90;0.50;;;;;;;6.84;59.56;99361.75;5265428;27;20458;-84
2023/02/04 02:16:25;;;;;;;8.00;1.05;;;;;;;6.88;59.56;99372.03;5265894;27;20092;-85
2023/02/04 02:18:53;;;;;;;4.55;0.62;;;;;;;7.00;59.56;99371.72;5265490;27;20107;-85
2023/02/04 02:21:21;;;;;;;7.05;0.95;;;;;;;7.03;59.57;99378.56;5302247;27;20098;-85
2023/02/04 02:23:51;;;;;;;9.40;0.82;;;;;;;7.00;59.56;99369.16;5283836;27;20357;-84
2023/02/04 02:26:17;;;;;;;14.57;1.90;;;;;;;7.06;59.57;99369.00;5283960;27;20117;-84
2023/02/04 02:28:42;;;;;;;4.25;0.82;;;;;;;6.84;59.56;99370.38;5302051;27;20056;-84
2023/02/04 02:31:08;;;;;;;7.60;1.50;;;;;;;6.85;59.56;99366.06;5265776;27;20049;-84
2023/02/04 02:33:33;;;;;;;2.80;0.50;;;;;;;6.87;59.56;99375.50;5283859;27;20096;-82
2023/02/04 02:35:59;;;;;;;2.62;0.55;;;;;;;6.84;59.56;99372.12;5265968;27;20076;-84
2023/02/04 02:38:24;;;;;;;10.32;1.85;;;;;;;6.98;59.57;99370.06;5265549;27;20063;-84
2023/02/04 02:40:51;;;;;;;3.70;0.60;;;;;;;7.02;59.56;99361.34;5265237;27;20057;-84
2023/02/04 02:43:18;;;;;;;5.00;1.10;;;;;;;7.16;59.57;99374.81;5284167;27;20041;-84
2023/02/04 02:45:44;;;;;;;1.95;1.00;;;;;;;7.15;59.57;99362.75;5266098;27;20422;-84
2023/02/04 02:48:09;;;;;;;3.58;0.55;;;;;;;7.15;59.57;99354.16;5265479;27;20066;-85
2023/02/04 02:50:35;;;;;;;4.07;0.70;;;;;;;7.07;59.57;99351.72;5301802;27;20394;-84
2023/02/04 02:53:00;;;;;;;4.53;0.73;;;;;;;7.04;59.57;99350.06;5264846;27;21187;-85
2023/02/04 02:55:26;;;;;;;2.65;0.95;;;;;;;7.03;59.57;99356.13;5265701;27;20395;-84
2023/02/04 02:57:52;;;;;;;4.53;0.98;;;;;;;7.05;59.58;99351.75;5283776;27;20061;-84
2023/02/04 03:00:27;;;;;;;6.62;0.80;;;;;;;7.16;59.57;99356.69;5265572;27;20191;-85
2023/02/04 03:03:12;;;;;;;3.70;0.88;;;;;;;7.04;59.57;99346.63;5283649;27;20395;-85
2023/02/04 03:05:40;;;;;;;3.30;0.85;;;;;;;6.95;59.57;99352.87;5302066;27;20052;-85
2023/02/04 03:08:06;;;;;;;2.97;0.50;;;;;;;6.91;59.56;99353.84;5283805;27;20123;-85
2023/02/04 03:10:31;;;;;;;6.03;0.98;;;;;;;7.07;59.57;99357.75;5284822;27;20428;-84
2023/02/04 03:12:57;;;;;;;7.80;0.93;;;;;;;7.12;59.58;99352.50;5284266;27;20100;-85
2023/02/04 03:15:22;;;;;;;4.70;0.80;;;;;;;7.11;59.58;99355.13;5265441;27;20520;-84
2023/02/04 03:17:48;;;;;;;2.85;0.45;;;;;;;7.15;59.57;99351.56;5265405;27;20081;-84
2023/02/04 03:20:14;;;;;;;3.53;1.05;;;;;;;7.02;59.57;99354.44;5265834;27;20183;-84
2023/02/04 03:22:39;;;;;;;5.50;0.55;;;;;;;7.00;59.57;99355.34;5283159;27;20057;-84
2023/02/04 03:25:05;;;;;;;3.50;0.98;;;;;;;7.10;59.58;99343.91;5301762;27;20076;-84
2023/02/04 03:27:30;;;;;;;5.05;0.77;;;;;;;7.07;59.57;99354.31;5283754;27;20060;-85
2023/02/04 03:29:56;;;;;;;5.40;0.93;;;;;;;6.81;59.56;99339.41;5265280;27;20702;-85
2023/02/04 03:32:21;;;;;;;2.30;0.60;;;;;;;6.92;59.56;99327.09;5285434;27;20052;-84
2023/02/04 03:34:47;;;;;;;5.57;1.20;;;;;;;6.76;59.55;99330.91;5301883;27;20134;-84
2023/02/04 03:37:13;;;;;;;5.85;0.82;;;;;;;6.77;59.55;99322.25;5283807;27;20123;-84
2023/02/04 03:39:39;;;;;;;4.07;1.25;;;;;;;6.89;59.56;99324.56;5265362;27;20100;-85
2023/02/04 03:42:04;;;;;;;6.25;1.02;;;;;;;6.81;59.55;99334.22;5283880;27;20068;-84
2023/02/04 03:44:30;;;;;;;3.17;0.60;;;;;;;6.97;59.57;99337.31;5283525;27;20412;-84
2023/02/04 03:46:55;;;;;;;5.80;1.52;;;;;;;6.93;59.56;99326.19;5301918;27;20424;-84
2023/02/04 03:49:21;;;;;;;2.85;1.67;;;;;;;6.75;59.55;99313.69;5283670;27;20098;-84
2023/02/04 03:51:47;;;;;;;3.25;0.95;;;;;;;6.95;59.57;99323.56;5285014;27;20049;-85
2023/02/04 03:54:12;;;;;;;5.85;2.05;;;;;;;6.85;59.56;99306.56;5274292;27;20065;-85
2023/02/04 03:56:38;;;;;;;8.00;1.80;;;;;;;6.84;59.56;99322.97;5278791;27;20108;-84
2023/02/04 03:59:03;;;;;;;2.83;0.60;;;;;;;6.75;59.55;99314.53;5273868;27;20103;-85
2023/02/04 04:01:28;;;;;;;6.80;0.98;;;;;;;6.78;59.55;99311.88;5266049;27;20104;-84
2023/02/04 04:03:54;;;;;;;5.47;0.93;;;;;;;6.96;59.57;99312.34;5283538;27;20135;-84
2023/02/04 04:06:19;;;;;;;4.80;0.65;;;;;;;6.73;59.56;99315.47;5265518;27;20052;-84
2023/02/04 04:08:45;;;;;;;3.78;0.70;;;;;;;6.73;59.56;99312.88;5265028;27;20398;-83
2023/02/04 04:11:10;;;;;;;6.50;1.20;;;;;;;6.61;59.55;99307.97;5301573;27;20418;-83
2023/02/04 04:13:36;;;;;;;2.70;0.60;;;;;;;6.72;59.56;99312.03;5283635;27;20064;-84
2023/02/04 04:16:02;;;;;;;1.95;0.62;;;;;;;6.89;59.56;99309.06;5283485;27;20100;-83
2023/02/04 04:18:28;;;;;;;4.90;0.50;;;;;;;6.94;59.56;99296.00;5265511;27;20103;-84
2023/02/04 04:20:53;;;;;;;4.15;0.50;;;;;;;6.93;59.56;99294.31;5301463;27;20438;-84
2023/02/04 04:23:18;;;;;;;5.15;0.65;;;;;;;6.84;59.56;99302.25;5301879;27;20456;-85
2023/02/04 04:25:44;;;;;;;7.65;0.47;;;;;;;6.89;59.56;99298.72;5265241;27;20163;-84
2023/02/04 04:28:10;;;;;;;3.67;0.62;;;;;;;6.83;59.56;99288.47;5284496;27;20093;-85
2023/02/04 04:30:35;;;;;;;5.85;0.90;;;;;;;6.93;59.56;99291.72;5284090;27;20101;-86
2023/02/04 04:33:00;;;;;;;3.90;0.93;;;;;;;6.98;59.56;99289.84;5265448;27;20064;-85
2023/02/04 04:35:26;;;;;;;5.28;0.75;;;;;;;6.90;59.56;99287.47;5265510;27;20658;-84
2023/02/04 04:37:51;;;;;;;2.17;0.80;;;;;;;7.02;59.56;99288.88;5282958;27;20065;-84
2023/02/04 04:40:17;;;;;;;5.07;1.83;;;;;;;6.96;59.57;99289.06;5265032;27;20150;-84
2023/02/04 04:42:42;;;;;;;6.00;0.90;;;;;;;6.97;59.57;99283.84;5283219;27;20064;-84
2023/02/04 04:45:08;;;;;;;4.72;0.93;;;;;;;6.98;59.57;99276.91;5265233;27;20100;-83
2023/02/04 04:47:34;;;;;;;6.57;1.00;;;;;;;7.08;59.57;99268.87;5283634;27;20059;-84
2023/02/04 04:49:59;;;;;;;5.37;0.90;;;;;;;7.13;59.57;99273.09;5283032;27;20380;-84
2023/02/04 04:52:24;;;;;;;2.67;0.65;;;;;;;7.04;59.57;99274.16;5301534;27;20429;-84
2023/02/04 04:54:50;;;;;;;4.43;0.50;;;;;;;7.16;59.57;99260.94;5282408;27;20928;-83
2023/02/04 04:57:15;;;;;;;1.45;0.50;;;;;;;7.18;59.58;99250.53;5282768;27;20388;-83
2023/02/04 04:59:42;;;;;;;4.07;0.50;;;;;;;7.09;59.57;99251.59;5300765;27;20143;-84
2023/02/04 05:02:07;;;;;;;4.32;0.90;;;;;;;7.22;59.57;99234.03;5264963;27;20115;-84
2023/02/04 05:04:33;;;;;;;2.95;0.37;;;;;;;6.96;59.57;99245.91;5264764;27;20120;-84
2023/02/04 05:06:58;;;;;;;6.30;0.60;;;;;;;6.82;59.56;99241.97;5265862;27;20056;-85
2023/02/04 05:09:24;;;;;;;6.82;1.05;;;;;;;6.89;59.56;99241.78;5268479;27;20104;-84
2023/02/04 05:11:49;;;;;;;4.80;0.50;;;;;;;6.85;59.56;99227.19;5302603;27;20057;-84
2023/02/04 05:14:14;;;;;;;2.33;0.30;;;;;;;6.96;59.57;99232.97;5283123;27;20100;-85
2023/02/04 05:16:40;;;;;;;4.00;0.70;;;;;;;6.90;59.57;99235.72;5265957;27;20076;-85
2023/02/04 05:19:05;;;;;;;1.85;0.50;;;;;;;6.84;59.56;99233.28;5302624;27;20096;-84
2023/02/04 05:21:31;;;;;;;0.95;0.30;;;;;;;6.82;59.56;99242.81;5265970;27;20132;-84
2023/02/04 05:23:56;;;;;;;0.75;0.30;;;;;;;7.00;59.57;99244.09;5284227;27;20112;-84
2023/02/04 05:26:22;;;;;;;3.85;0.50;;;;;;;7.17;59.57;99244.50;5266060;27;20105;-84
2023/02/04 05:28:47;;;;;;;3.65;0.37;;;;;;;7.00;59.56;99244.94;5284388;27;20049;-85
2023/02/04 05:31:12;;;;;;;1.83;0.28;;;;;;;7.14;59.57;99235.97;5284330;27;20076;-85
2023/02/04 05:33:38;;;;;;;2.12;0.57;;;;;;;7.01;59.56;99250.97;5285675;27;20090;-85
2023/02/04 05:36:03;;;;;;;1.90;0.60;;;;;;;7.04;59.57;99259.50;5284101;27;20260;-85
2023/02/04 05:38:29;;;;;;;1.25;0.32;;;;;;;7.01;59.56;99267.34;5285307;27;20052;-84
2023/02/04 05:40:54;;;;;;;0.73;0.40;;;;;;;7.11;59.58;99273.16;5285849;27;20053;-84
2023/02/04 05:43:20;;;;;;;1.40;0.40;;;;;;;6.91;59.56;99277.97;5286013;27;20080;-84
2023/02/04 05:45:45;;;;;;;1.40;0.25;;;;;;;6.80;59.55;99279.94;5284394;27;20097;-84
2023/02/04 05:48:11;;;;;;;1.35;0.35;;;;;;;6.67;59.55;99295.78;5284159;27;20373;-85
2023/02/04 05:50:36;;;;;;;0.22;0.15;;;;;;;6.52;59.54;99308.19;5266205;27;20076;-84
2023/02/04 05:53:01;;;;;;;0.60;0.20;;;;;;;6.33;59.53;99326.69;5266174;27;20096;-86
2023/02/04 05:55:27;;;;;;;1.12;0.30;;;;;;;6.32;59.53;99325.00;5284226;27;20380;-85
2023/02/04 05:57:52;;;;;;;1.00;0.30;;;;;;;6.20;59.52;99332.19;5266723;27;20151;-86
2023/02/04 06:00:18;;;;;;;7.95;0.52;;;;;;;6.05;59.51;99347.09;5303564;27;20115;-84
2023/02/04 06:02:43;;;;;;;0.93;0.30;;;;;;;5.94;59.51;99350.78;5284788;27;20104;-85
2023/02/04 06:05:09;;;;;;;0.50;0.32;;;;;;;5.87;59.50;99345.69;5285142;27;20131;-84
2023/02/04 06:07:34;;;;;;;0.85;0.28;;;;;;;5.53;59.47;99349.78;5265901;27;20386;-84
2023/02/04 06:10:00;;;;;;;0.93;0.30;;;;;;;5.32;59.48;99357.91;5284361;27;20123;-86
2023/02/04 06:12:25;;;;;;;0.75;0.28;;;;;;;5.56;59.49;99347.16;5284146;27;20072;-85
2023/02/04 06:14:50;;;;;;;0.32;0.10;;;;;;;5.59;59.49;99336.78;5283111;27;20127;-82
2023/02/04 06:17:16;;;;;;;0.35;0.20;;;;;;;5.28;59.47;99346.78;5321820;27;20104;-84
2023/02/04 06:19:41;;;;;;;0.35;0.30;;;;;;;5.29;59.47;99355.38;5265476;27;20372;-84
2023/02/04 06:22:07;;;;;;;1.30;0.35;;;;;;;5.45;59.48;99362.00;5283456;27;20630;-82
2023/02/04 06:24:32;;;;;;;0.57;0.37;;;;;;;5.45;59.48;99349.94;5286169;27;20125;-83
2023/02/04 06:26:57;;;;;;;0.50;0.20;;;;;;;5.47;59.48;99332.69;5301738;27;20103;-84
2023/02/04 06:29:23;;;;;;;0.45;0.10;;;;;;;5.34;59.47;99369.06;5283546;27;20076;-83
2023/02/04 06:31:48;;;;;;;0.25;0.25;;;;;;;5.12;59.46;99346.19;5265517;27;20111;-84
2023/02/04 06:34:14;;;;;;;0.80;0.40;;;;;;;5.15;59.46;99355.59;5266126;27;20088;-85
2023/02/04 06:36:39;;;;;;;0.30;0.10;;;;;;;5.11;59.46;99344.50;5266351;27;20044;-84
2023/02/04 06:39:05;;;;;;;0.20;0.20;;;;;;;5.26;59.47;99369.19;5284082;27;20064;-83
2023/02/04 06:41:30;;;;;;;0.65;0.20;;;;;;;5.19;59.47;99381.31;5284558;27;20463;-85
2023/02/04 06:43:56;;;;;;;0.20;0.20;;;;;;;5.10;59.47;99390.94;5266846;27;20128;-85
2023/02/04 06:46:21;;;;;;;2.15;0.50;;;;;;;5.08;59.46;99387.53;5265878;27;20108;-84
2023/02/04 06:48:46;;;;;;;0.40;0.25;;;;;;;5.26;59.47;99376.09;5322317;27;20080;-84
2023/02/04 06:51:12;;;;;;;0.73;0.30;;;;;;;5.14;59.46;99388.28;5283803;27;20052;-85
2023/02/04 06:53:39;;;;;;;1.00;0.57;;;;;;;5.31;59.47;99407.81;5284172;27;20110;-85
2023/02/04 06:56:05;;;;;;;2.25;0.70;;;;;;;5.36;59.47;99404.28;5284342;27;20052;-85
2023/02/04 06:58:31;;;;;;;0.47;0.30;;;;;;;5.38;59.48;99409.41;5284116;27;20053;-85
2023/02/04 07:00:56;;;;;;;0.50;0.30;;;;;;;5.23;59.46;99418.28;5284130;27;20386;-85
2023/02/04 07:03:21;;;;;;;0.77;0.35;;;;;;;5.38;59.48;99427.47;5284415;27;20093;-84
2023/02/04 07:05:47;;;;;;;2.37;0.80;;;;;;;5.17;59.47;99441.56;5302064;27;20061;-85
2023/02/04 07:08:12;;;;;;;1.83;0.80;;;;;;;5.31;59.47;99436.22;5284396;27;20072;-85
2023/02/04 07:10:38;;;;;;;2.05;1.00;;;;;;;5.05;59.46;99444.34;5266451;27;20100;-84
2023/02/04 07:13:03;;;;;;;1.10;0.80;;;;;;;4.97;59.45;99436.72;5284583;27;20105;-84
2023/02/04 07:15:29;;;;;;;2.45;1.10;;;;;;;4.96;59.45;99427.25;5284590;27;20421;-85
2023/02/04 07:17:55;;;;;;;1.65;0.90;;;;;;;4.87;59.45;99437.72;5266484;27;20060;-84
2023/02/04 07:20:20;;;;;;;2.78;1.40;;;;;;;4.53;59.43;99424.44;5266652;27;20087;-85
2023/02/04 07:22:46;;;;;;;2.03;0.95;;;;;;;4.44;59.43;99427.09;5266194;27;20049;-85
2023/02/04 07:25:13;;;;;;;1.90;1.20;;;;;;;4.34;59.41;99436.69;5265508;27;20112;-84
2023/02/04 07:27:39;;;;;;;2.85;1.42;;;;;;;4.39;59.42;99452.94;5284282;27;20082;-84
2023/02/04 07:30:05;;;;;;;2.05;1.35;;;;;;;4.40;59.42;99454.66;5284450;27;20445;-85
2023/02/04 07:32:32;;;;;;;2.90;1.75;;;;;;;4.23;59.41;99464.28;5283870;27;20069;-84
2023/02/04 07:34:58;;;;;;;2.28;1.35;;;;;;;4.21;59.41;99473.75;5266171;27;20056;-83
2023/02/04 07:37:24;;;;;;;4.05;1.80;;;;;;;4.30;59.42;99476.25;5265491;27;20095;-83
2023/02/04 07:39:49;;;;;;;3.50;2.08;;;;;;;4.27;59.42;99497.75;5283983;27;20389;-83
2023/02/04 07:42:15;;;;;;;5.87;1.85;;;;;;;4.16;59.41;99501.28;5283886;27;20409;-85
2023/02/04 07:44:40;;;;;;;6.85;2.05;;;;;;;4.23;59.42;99485.75;5265665;27;20067;-83
2023/02/04 07:47:06;;;;;;;4.43;1.85;;;;;;;4.36;59.42;99498.50;5284210;27;20128;-83
2023/02/04 07:49:31;;;;;;;2.50;2.05;;;;;;;4.42;59.43;99532.78;5283994;27;20103;-84
2023/02/04 07:51:56;;;;;;;3.00;1.58;;;;;;;4.69;59.44;99525.62;5284013;27;20406;-82
2023/02/04 07:54:22;;;;;;;3.22;1.80;;;;;;;4.63;59.43;99535.13;5284153;27;20101;-84
2023/02/04 07:56:48;;;;;;;3.10;1.58;;;;;;;4.59;59.43;99532.62;5284326;27;20075;-83
2023/02/04 07:59:13;;;;;;;4.03;2.08;;;;;;;4.62;59.43;99530.84;5283667;27;20409;-83
2023/02/04 08:01:38;;;;;;;5.45;2.85;;;;;;;4.53;59.43;99540.41;5267964;27;20098;-83
2023/02/04 08:04:04;;;;;;;6.00;3.00;;;;;;;4.46;59.42;99562.81;5266083;27;20104;-83
2023/02/04 08:06:29;;;;;;;6.53;2.35;;;;;;;4.43;59.43;99586.03;5284102;27;20405;-84
2023/02/04 08:08:55;;;;;;;3.00;1.75;;;;;;;4.42;59.42;99588.63;5265741;27;20317;-83
2023/02/04 08:11:20;;;;;;;3.83;2.22;;;;;;;4.42;59.42;99604.09;5266540;27;20379;-83
2023/02/04 08:13:46;;;;;;;3.62;2.33;;;;;;;4.43;59.43;99591.19;5283958;27;20088;-82
2023/02/04 08:16:11;;;;;;;3.95;2.47;;;;;;;4.37;59.42;99601.56;5265534;27;20111;-83
2023/02/04 08:18:37;;;;;;;3.62;2.05;;;;;;;4.41;59.42;99569.75;5265566;27;20127;-82
2023/02/04 08:21:03;;;;;;;5.65;2.42;;;;;;;4.22;59.41;99597.37;5283822;27;20097;-84
2023/02/04 08:23:29;;;;;;;4.03;1.75;;;;;;;4.33;59.41;99615.34;5269828;27;20017;-83
2023/02/04 08:25:54;;;;;;;6.12;2.53;;;;;;;4.28;59.42;99625.72;5271276;27;20060;-83
2023/02/04 08:28:20;;;;;;;3.47;2.35;;;;;;;4.28;59.42;99620.56;5311340;27;20104;-82
2023/02/04 08:30:45;;;;;;;5.62;2.30;;;;;;;4.20;59.40;99626.63;5290487;27;20093;-83
2023/02/04 08:33:11;;;;;;;4.35;2.45;;;;;;;4.36;59.42;99635.09;5268497;27;20405;-84
2023/02/04 08:35:36;;;;;;;4.50;2.12;;;;;;;4.32;59.41;99660.03;5265666;27;20116;-84
2023/02/04 08:38:01;;;;;;;3.95;2.00;;;;;;;4.14;59.41;99645.56;5284012;27;20096;-83
2023/02/04 08:40:27;;;;;;;6.25;1.62;;;;;;;4.16;59.41;99659.28;5284000;27;20049;-83
2023/02/04 08:42:52;;;;;;;2.97;1.70;;;;;;;3.92;59.40;99646.59;5284714;27;20469;-84
2023/02/04 08:45:18;;;;;;;6.18;2.22;;;;;;;3.94;59.39;99658.56;5285097;27;20108;-83
2023/02/04 08:47:43;;;;;;;4.25;2.10;;;;;;;4.05;59.40;99655.09;5285066;27;20068;-83
2023/02/04 08:50:09;;;;;;;3.12;2.08;;;;;;;4.04;59.40;99681.72;5285025;27;20113;-83
2023/02/04 08:52:35;;;;;;;4.40;2.15;;;;;;;4.06;59.41;99685.12;5284913;27;20117;-83
2023/02/04 08:55:01;;;;;;;4.25;2.03;;;;;;;4.14;59.41;99680.78;5267199;27;20115;-83
2023/02/04 08:57:26;;;;;;;3.33;1.80;;;;;;;3.93;59.39;99703.22;5285512;27;20068;-83
2023/02/04 08:59:51;;;;;;;4.87;2.60;;;;;;;3.97;59.39;99683.44;5267179;27;20076;-83
2023/02/04 09:02:17;;;;;;;2.67;1.60;;;;;;;4.09;59.40;99700.56;5266733;27;20124;-83
2023/02/04 09:04:42;;;;;;;2.90;1.50;;;;;;;4.25;59.41;99704.72;5284809;27;20113;-82
2023/02/04 09:07:08;;;;;;;3.47;1.77;;;;;;;4.01;59.40;99698.00;5266453;27;20122;-83
2023/02/04 09:09:33;;;;;;;2.58;1.52;;;;;;;4.23;59.41;99712.47;5266823;27;20417;-84
2023/02/04 09:12:00;;;;;;;3.53;1.70;;;;;;;4.40;59.42;99730.38;5284892;27;20120;-84
2023/02/04 09:14:25;;;;;;;3.37;1.55;;;;;;;4.61;59.43;99724.22;5267359;27;20056;-83
2023/02/04 09:16:51;;;;;;;1.95;1.08;;;;;;;4.66;59.44;99743.06;5284605;27;20146;-83
2023/02/04 09:19:22;;;;;;;2.08;1.30;;;;;;;4.43;59.43;99752.69;5285106;27;20112;-83
2023/02/04 09:21:54;;;;;;;4.75;1.37;;;;;;;4.36;59.42;99775.09;5286319;27;20052;-83
2023/02/04 09:24:22;;;;;;;1.80;0.93;;;;;;;4.47;59.42;99786.16;5303380;27;20441;-84
2023/02/04 09:26:48;;;;;;;3.30;1.00;;;;;;;4.74;59.44;99779.97;5266713;27;20421;-87
2023/02/04 09:29:14;;;;;;;1.80;1.02;;;;;;;4.80;59.45;99792.81;5268252;27;20053;-88
2023/02/04 09:31:39;;;;;;;3.72;1.48;;;;;;;4.70;59.44;99816.09;5304547;27;20064;-89
2023/02/04 09:34:05;;;;;;;1.73;1.20;;;;;;;4.82;59.45;99816.00;5304408;27;20053;-88
2023/02/04 09:36:33;;;;;;;3.03;1.30;;;;;;;4.72;59.44;99846.16;5267875;27;20080;-86
2023/02/04 09:38:58;;;;;;;1.95;1.10;;;;;;;4.92;59.45;99836.53;5267638;27;20048;-84
2023/02/04 09:41:23;;;;;;;2.25;0.95;;;;;;;5.07;59.46;99843.31;5284272;27;20433;-84
2023/02/04 09:43:49;;;;;;;1.42;1.08;;;;;;;5.01;59.46;99848.53;5283573;27;20469;-83
2023/02/04 09:46:20;;;;;;;1.48;0.70;;;;;;;5.17;59.47;99895.69;5283693;27;20115;-83
2023/02/04 09:48:45;;;;;;;2.35;0.85;;;;;;;5.25;59.47;99891.34;5284229;27;20049;-84
2023/02/04 09:51:24;;;;;;;3.22;0.82;;;;;;;5.22;59.46;99925.78;5283144;27;20087;-84
2023/02/04 09:53:52;;;;;;;1.37;1.02;;;;;;;5.10;59.46;99918.13;5285461;27;20060;-85
2023/02/04 09:56:19;;;;;;;1.87;0.80;;;;;;;5.21;59.46;99924.06;5269486;27;20118;-85
2023/02/04 09:58:45;;;;;;;1.95;1.00;;;;;;;5.22;59.47;99904.28;5287487;27;20105;-85
2023/02/04 10:01:15;;;;;;;2.15;0.95;;;;;;;5.49;59.48;99959.97;5270048;27;20052;-84
2023/02/04 10:03:45;;;;;;;0.88;0.60;;;;;;;5.67;59.49;99946.03;5287866;27;20087;-82
2023/02/04 10:06:18;;;;;;;1.70;0.88;;;;;;;5.67;59.49;99962.37;5311509;27;20075;-83
2023/02/04 10:08:45;;;;;;;8.48;1.05;;;;;;;5.48;59.48;99964.28;5295209;27;20053;-80
2023/02/04 10:11:10;;;;;;;2.45;1.17;;;;;;;5.41;59.48;99964.31;5305129;27;20409;-82
2023/02/04 10:13:44;;;;;;;2.78;1.33;;;;;;;5.34;59.47;99973.84;5283982;27;20071;-82
2023/02/04 10:16:13;;;;;;;3.65;1.48;;;;;;;4.95;59.46;99949.16;5301941;27;20056;-82
2023/02/04 10:18:39;;;;;;;2.55;0.90;;;;;;;5.06;59.46;99980.06;5283553;27;20049;-87
2023/02/04 10:21:16;;;;;;;6.53;1.50;;;;;;;5.28;59.47;99985.94;5265474;27;20083;-81
2023/02/04 10:23:41;;;;;;;3.33;1.52;;;;;;;5.15;59.46;100024.72;5302640;27;20072;-83
2023/02/04 10:26:10;;;;;;;3.35;1.45;;;;;;;4.97;59.45;100001.62;5284756;27;20144;-82
2023/02/04 10:28:36;;;;;;;6.32;1.55;;;;;;;5.10;59.46;100000.69;5283594;27;20065;-82
2023/02/04 10:31:01;;;;;;;4.37;1.52;;;;;;;5.00;59.45;100004.19;5284047;27;20059;-84
2023/02/04 10:33:27;;;;;;;2.10;1.10;;;;;;;4.78;59.44;100036.09;5285093;27;20119;-84
2023/02/04 10:35:54;;;;;;;2.58;0.75;;;;;;;4.82;59.45;100015.44;5285413;27;20112;-84
2023/02/04 10:38:19;;;;;;;1.27;0.70;;;;;;;4.52;59.43;100049.09;5286496;27;20416;-84
2023/02/04 10:40:46;;;;;;;1.23;0.68;;;;;;;4.77;59.44;100042.97;5266930;27;20063;-83
2023/02/04 10:43:20;;;;;;;2.47;1.17;;;;;;;4.61;59.43;100049.03;5266209;27;20079;-83
2023/02/04 10:45:47;;;;;;;1.27;0.90;;;;;;;4.70;59.44;100043.00;5284182;27;20075;-84
2023/02/04 10:48:15;;;;;;;1.92;0.90;;;;;;;4.71;59.43;100068.75;5283471;27;20100;-84
2023/02/04 10:50:40;;;;;;;2.12;0.60;;;;;;;4.85;59.44;100069.59;5301825;27;20352;-82
2023/02/04 10:55:51;;;;;;;1.77;1.12;;;;;;;4.60;59.43;100109.22;5292507;27;20075;-83
2023/02/04 10:58:25;;;;;;;1.92;1.17;;;;;;;4.77;59.44;100104.00;5302013;27;20056;-86
2023/02/04 11:00:51;;;;;;;2.47;1.00;;;;;;;4.82;59.45;100099.69;5284531;27;20045;-83
2023/02/04 11:03:26;;;;;;;1.12;0.70;;;;;;;4.79;59.45;100098.00;5284650;27;20053;-83
2023/02/04 11:05:54;;;;;;;1.33;0.45;;;;;;;4.99;59.46;100126.31;5287207;27;20255;-90
2023/02/04 11:08:26;;;;;;;7.40;0.90;;;;;;;4.90;59.45;100118.56;5269481;27;20066;-90
2023/02/04 11:10:57;;;;;;;3.10;0.73;;;;;;;4.98;59.45;100126.31;5269533;27;20346;-92
2023/02/04 11:13:40;;;;;;;1.65;0.93;;;;;;;4.96;59.45;100146.91;5286513;27;20040;-91
2023/02/04 11:16:11;;;;;;;1.17;0.62;;;;;;;4.82;59.45;100139.25;5289053;27;20075;-91
2023/02/04 11:18:47;;;;;;;3.30;0.95;;;;;;;4.96;59.45;100153.81;5286570;27;20104;-90
2023/02/04 11:21:34;;;;;;;1.52;0.50;;;;;;;4.89;59.45;100153.81;5287085;27;20079;-90
2023/02/04 11:24:14;;;;;;;2.90;0.80;;;;;;;4.84;59.44;100170.19;5305577;27;20072;-90
2023/02/04 11:26:46;;;;;;;0.85;0.50;;;;;;;4.72;59.45;100173.63;5305719;27;20134;-87
2023/02/04 11:29:14;;;;;;;1.50;0.60;;;;;;;4.97;59.45;100160.69;5286575;27;20078;-90
2023/02/04 11:31:42;;;;;;;3.33;0.68;;;;;;;4.97;59.45;100177.06;5304259;27;20079;-89
2023/02/04 11:34:24;;;;;;;2.03;1.02;;;;;;;5.05;59.46;100185.63;5284927;27;20065;-90
2023/02/04 11:36:58;;;;;;;1.55;0.62;;;;;;;5.17;59.47;100184.69;5286196;27;20057;-91
2023/02/04 11:39:35;;;;;;;1.52;0.70;;;;;;;5.08;59.46;100215.72;5304907;27;20056;-91